Portada
METAR-TAF:

METAR-TAF

Aeropuertos :

Laupheim, Alemania

latitud: 48-13N, longitud: 009-55E, altitud: 538 m

Observación

El informe se hizo hace 14 minutos, a las 00:47 UTC
Viento 14 kt del noreste
Temperatura 0°C
Humedad 86%
Presión 1022 hPa
Visibilidad: 4000 m
Nubes dispersas a una altura de 700 ft
Cielo nuboso a una altura de 1400 ft
poca nieve

METAR: ETHL 300047Z 04014KT 4000 -SN SCT007 BKN014 M00/M02 Q1022 RESN GRN

Hora: 03:01 (01:01 UTC)


TAF: falta

Observaciones y pronósticos meteorológicos de más de 4000 aeropuertos (mensajes METAR y TAF).

Los puntos amarillos y rojos representan las estaciones disponibles.

Ponga el ratón en el punto deseado para ver el nombre de la estación.

Haga clic para ver las observaciones y los pronósticos meteorológicos.

Para cambiar el mapa : haga clic en los botones verdes con una cruz de color negro para hacer un zoom, en el botón verde con un guión para alejar o en las flechas verdes para mapas adyacentes.


METAR-TAF: